createdAt,value
2023-05-21T00:01:15.864Z,10.23
2023-05-21T00:06:17.915Z,10.12
2023-05-21T00:11:19.789Z,10.23
2023-05-21T00:16:22.339Z,10.05
2023-05-21T00:21:24.295Z,10.06
2023-05-21T00:26:26.197Z,10.20
2023-05-21T00:31:28.199Z,10.31
2023-05-21T00:36:30.147Z,10.26
2023-05-21T00:41:32.153Z,10.26
2023-05-21T00:46:34.137Z,10.39
2023-05-21T00:51:36.133Z,10.51
2023-05-21T00:56:38.056Z,10.55
2023-05-21T01:01:40.054Z,10.39
2023-05-21T01:06:42.014Z,10.35
2023-05-21T01:11:46.765Z,10.44
2023-05-21T01:16:49.296Z,10.38
2023-05-21T01:21:52.318Z,10.32
2023-05-21T01:26:54.134Z,10.53
2023-05-21T01:32:06.624Z,10.45
2023-05-21T01:37:28.732Z,10.61
2023-05-21T01:42:30.645Z,10.58
2023-05-21T01:47:32.656Z,10.57
2023-05-21T01:52:34.559Z,10.48
2023-05-21T01:57:36.391Z,10.75
2023-05-21T02:02:38.472Z,10.71
2023-05-21T02:07:40.671Z,10.67
2023-05-21T02:12:42.540Z,10.67
2023-05-21T02:17:45.633Z,10.61
2023-05-21T02:22:48.262Z,10.79
2023-05-21T02:27:50.203Z,10.65
2023-05-21T02:32:52.191Z,10.71
2023-05-21T02:37:54.473Z,10.81
2023-05-21T02:42:56.419Z,10.76
2023-05-21T02:47:58.346Z,10.79
2023-05-21T02:53:00.377Z,10.72
2023-05-21T02:58:02.280Z,10.84
2023-05-21T03:03:04.211Z,10.96
2023-05-21T03:08:06.242Z,10.91
2023-05-21T03:13:09.742Z,10.78
2023-05-21T03:18:11.954Z,10.78
2023-05-21T03:23:16.433Z,10.81
2023-05-21T03:28:19.933Z,10.77
2023-05-21T03:33:22.431Z,10.72
2023-05-21T03:38:24.313Z,10.88
2023-05-21T03:43:26.300Z,11.10
2023-05-21T03:48:28.323Z,10.94
2023-05-21T03:53:30.196Z,11.02
2023-05-21T03:58:32.181Z,11.00
2023-05-21T04:03:34.480Z,11.48
2023-05-21T04:08:36.380Z,12.26
2023-05-21T04:13:38.866Z,12.49
2023-05-21T04:18:42.476Z,12.18
2023-05-21T04:23:46.085Z,12.01
2023-05-21T04:28:48.105Z,12.14
2023-05-21T04:33:50.006Z,11.88
2023-05-21T04:38:51.893Z,12.04
2023-05-21T04:43:53.885Z,12.25
2023-05-21T04:48:55.885Z,12.43
2023-05-21T04:53:58.232Z,14.05
2023-05-21T04:58:59.936Z,13.41
2023-05-21T05:04:01.948Z,12.72
2023-05-21T05:09:03.976Z,12.82
2023-05-21T05:14:05.968Z,13.04
2023-05-21T05:19:07.874Z,13.11
2023-05-21T05:24:09.833Z,12.96
2023-05-21T05:29:11.752Z,12.51
2023-05-21T05:34:13.683Z,12.27
2023-05-21T05:39:15.601Z,12.16
2023-05-21T05:44:17.509Z,12.43
2023-05-21T05:49:19.495Z,12.55
2023-05-21T05:54:21.465Z,12.51
2023-05-21T05:59:23.542Z,12.21
2023-05-21T06:04:25.522Z,12.12
2023-05-21T06:09:27.410Z,11.99
2023-05-21T06:14:29.308Z,12.09
2023-05-21T06:19:31.498Z,12.09
2023-05-21T06:24:33.423Z,12.28
2023-05-21T06:29:35.339Z,12.59
2023-05-21T06:34:37.253Z,12.91
2023-05-21T06:39:39.172Z,13.03
2023-05-21T06:44:41.206Z,13.73
2023-05-21T06:49:43.169Z,21.30
2023-05-21T06:54:44.971Z,20.72
2023-05-21T06:59:46.780Z,18.80
2023-05-21T07:04:48.683Z,17.57
2023-05-21T07:09:50.564Z,17.75
2023-05-21T07:14:52.506Z,17.15
2023-05-21T07:19:54.492Z,17.27
2023-05-21T07:24:56.197Z,19.73
2023-05-21T07:29:58.109Z,19.03
2023-05-21T07:35:00.070Z,19.39
2023-05-21T07:40:01.919Z,17.17
2023-05-21T07:45:07.129Z,18.56
2023-05-21T07:50:09.563Z,20.20
2023-05-21T07:55:11.428Z,18.62
2023-05-21T08:00:14.050Z,19.23
2023-05-21T08:05:16.196Z,16.94
2023-05-21T08:10:19.466Z,16.39
2023-05-21T08:15:21.982Z,15.79
2023-05-21T08:20:23.869Z,15.44
2023-05-21T08:25:26.352Z,15.97
2023-05-21T08:30:28.287Z,16.06
2023-05-21T08:35:30.227Z,16.41
2023-05-21T08:40:32.175Z,16.29
2023-05-21T08:45:35.417Z,16.30
2023-05-21T08:50:37.547Z,15.52
2023-05-21T08:55:39.765Z,15.33
2023-05-21T09:00:41.804Z,15.77
2023-05-21T09:05:44.679Z,16.25
2023-05-21T09:10:50.508Z,16.23
2023-05-21T09:15:52.704Z,17.04
2023-05-21T09:20:54.570Z,16.93
2023-05-21T09:25:56.555Z,16.44
2023-05-21T09:30:59.117Z,16.03
2023-05-21T09:36:00.970Z,15.88
2023-05-21T09:41:05.269Z,16.24
2023-05-21T09:46:07.235Z,15.90
2023-05-21T09:51:15.527Z,15.98
2023-05-21T09:56:27.820Z,15.93
2023-05-21T10:01:31.295Z,16.70
2023-05-21T10:06:33.295Z,17.27
2023-05-21T10:11:35.173Z,17.63
2023-05-21T10:16:37.376Z,16.98
2023-05-21T10:21:39.473Z,16.66
2023-05-21T10:26:41.384Z,16.60
2023-05-21T10:31:43.683Z,16.85
2023-05-21T10:36:45.542Z,17.58
2023-05-21T10:41:53.984Z,17.49
2023-05-21T10:47:02.401Z,16.84
2023-05-21T10:52:46.140Z,16.57
2023-05-21T10:58:02.531Z,16.78
2023-05-21T11:03:04.680Z,17.28
2023-05-21T11:08:06.720Z,17.47
2023-05-21T11:13:13.347Z,17.41
2023-05-21T11:18:15.317Z,17.20
2023-05-21T11:23:17.190Z,17.42
2023-05-21T11:28:34.965Z,17.32
2023-05-21T11:33:36.915Z,17.77
2023-05-21T11:38:38.821Z,17.84
2023-05-21T11:43:41.015Z,17.81
2023-05-21T11:48:42.960Z,17.62
2023-05-21T11:53:44.949Z,17.84
2023-05-21T11:58:46.797Z,17.53
2023-05-21T12:03:48.818Z,17.40
2023-05-21T12:08:53.346Z,17.06
2023-05-21T12:13:55.297Z,17.56
2023-05-21T12:18:57.235Z,17.68
2023-05-21T12:23:59.244Z,17.36
2023-05-21T12:29:01.211Z,17.16
2023-05-21T12:34:03.241Z,17.43
2023-05-21T12:39:05.027Z,17.42
2023-05-21T12:44:06.880Z,17.48
2023-05-21T12:49:08.866Z,17.52
2023-05-21T12:54:13.631Z,17.43
2023-05-21T12:59:15.506Z,17.49
2023-05-21T13:04:19.765Z,17.33
2023-05-21T13:09:21.733Z,17.06
2023-05-21T13:14:23.709Z,16.72
2023-05-21T13:19:25.814Z,16.44
2023-05-21T13:24:27.992Z,16.47
2023-05-21T13:29:30.004Z,16.80
2023-05-21T13:34:31.864Z,17.09
2023-05-21T13:39:33.816Z,16.83
2023-05-21T13:44:35.757Z,16.83
2023-05-21T13:49:38.379Z,16.87
2023-05-21T13:54:40.312Z,17.14
2023-05-21T13:59:42.274Z,17.24
2023-05-21T14:04:44.353Z,17.10
2023-05-21T14:09:46.570Z,17.76
2023-05-21T14:14:48.635Z,18.13
2023-05-21T14:19:50.711Z,17.75
2023-05-21T14:24:52.538Z,17.65
2023-05-21T14:29:54.439Z,17.67
2023-05-21T14:34:56.408Z,17.80
2023-05-21T14:39:58.358Z,17.78
2023-05-21T14:45:17.063Z,17.95
2023-05-21T14:50:20.460Z,17.76
2023-05-21T14:55:22.527Z,17.21
2023-05-21T15:00:24.644Z,17.03
2023-05-21T15:05:27.202Z,16.75
2023-05-21T15:10:29.184Z,17.04
2023-05-21T15:15:31.149Z,17.26
2023-05-21T15:20:33.138Z,17.46
2023-05-21T15:25:35.113Z,17.50
2023-05-21T15:30:36.935Z,17.12
2023-05-21T15:35:39.385Z,17.84
2023-05-21T15:40:41.671Z,17.45
2023-05-21T15:45:43.662Z,17.03
2023-05-21T15:50:45.623Z,16.57
2023-05-21T15:55:47.624Z,16.39
2023-05-21T16:00:49.585Z,16.36
2023-05-21T16:05:51.638Z,16.34
2023-05-21T16:10:53.561Z,16.10
2023-05-21T16:15:55.492Z,16.08
2023-05-21T16:20:57.436Z,16.12
2023-05-21T16:25:59.332Z,16.27
2023-05-21T16:31:01.653Z,16.32
2023-05-21T16:36:03.818Z,16.28
2023-05-21T16:41:05.792Z,16.25
2023-05-21T16:46:07.766Z,16.22
2023-05-21T16:51:09.750Z,16.09
2023-05-21T16:56:11.789Z,15.93
2023-05-21T17:01:13.724Z,15.85
2023-05-21T17:06:15.764Z,15.67
2023-05-21T17:11:17.778Z,15.50
2023-05-21T17:16:19.768Z,15.32
2023-05-21T17:21:21.768Z,15.25
2023-05-21T17:26:23.715Z,15.17
2023-05-21T17:31:25.662Z,15.15
2023-05-21T17:36:27.593Z,15.13
2023-05-21T17:41:29.641Z,15.06
2023-05-21T17:46:31.604Z,15.06
2023-05-21T17:51:33.632Z,15.02
2023-05-21T17:56:35.700Z,15.02
2023-05-21T18:01:38.521Z,15.02
2023-05-21T18:06:40.673Z,15.01
2023-05-21T18:11:43.394Z,15.04
2023-05-21T18:16:45.571Z,15.07
2023-05-21T18:21:47.884Z,15.06
2023-05-21T18:26:50.000Z,15.02
2023-05-21T18:31:51.961Z,14.97
2023-05-21T18:36:53.959Z,14.92
2023-05-21T18:42:11.363Z,14.85
2023-05-21T18:47:14.603Z,14.75
2023-05-21T18:52:16.586Z,14.66
2023-05-21T18:57:18.789Z,14.54
2023-05-21T19:02:20.741Z,14.43
2023-05-21T19:07:22.848Z,14.33
2023-05-21T19:12:24.988Z,14.23
2023-05-21T19:17:27.030Z,14.13
2023-05-21T19:22:28.992Z,14.03
2023-05-21T19:27:31.130Z,13.95
2023-05-21T19:32:33.055Z,13.87
2023-05-21T19:37:35.148Z,13.81
2023-05-21T19:42:37.133Z,13.75
2023-05-21T19:47:39.060Z,13.70
2023-05-21T19:52:41.060Z,13.65
2023-05-21T19:57:43.001Z,13.64
2023-05-21T20:02:45.007Z,13.64
2023-05-21T20:07:47.283Z,13.60
2023-05-21T20:12:49.408Z,13.56
2023-05-21T20:17:51.430Z,13.46
2023-05-21T20:22:56.480Z,13.48
2023-05-21T20:27:58.673Z,13.44
2023-05-21T20:33:01.702Z,13.36
2023-05-21T20:38:03.803Z,13.30
2023-05-21T20:43:05.767Z,13.23
2023-05-21T20:48:08.087Z,13.25
2023-05-21T20:53:10.835Z,13.17
2023-05-21T20:58:12.922Z,13.06
2023-05-21T21:03:14.999Z,12.99
2023-05-21T21:08:17.104Z,12.98
2023-05-21T21:13:19.070Z,13.02
2023-05-21T21:18:21.058Z,13.06
2023-05-21T21:23:28.578Z,13.03
2023-05-21T21:28:30.575Z,12.95
2023-05-21T21:33:32.693Z,12.91
2023-05-21T21:38:34.820Z,12.86
2023-05-21T21:43:36.914Z,12.85
2023-05-21T21:48:38.913Z,12.79
2023-05-21T21:53:40.930Z,12.75
2023-05-21T21:58:43.032Z,12.74
2023-05-21T22:03:45.046Z,12.69
2023-05-21T22:08:47.082Z,12.66
2023-05-21T22:13:49.210Z,12.62
2023-05-21T22:18:51.245Z,12.56
2023-05-21T22:23:53.716Z,12.52
2023-05-21T22:28:55.518Z,12.38
2023-05-21T22:33:57.458Z,12.40
2023-05-21T22:38:59.450Z,12.45
2023-05-21T22:44:01.480Z,12.46
2023-05-21T22:49:03.598Z,12.52
2023-05-21T22:54:05.694Z,12.40
2023-05-21T22:59:07.645Z,12.29
2023-05-21T23:04:09.635Z,12.23
2023-05-21T23:09:11.627Z,12.19
2023-05-21T23:14:13.657Z,12.13
2023-05-21T23:19:15.640Z,12.04
2023-05-21T23:24:17.599Z,11.93
2023-05-21T23:29:19.588Z,11.88
2023-05-21T23:34:21.612Z,11.77
2023-05-21T23:39:23.541Z,11.78
2023-05-21T23:44:25.462Z,11.79
2023-05-21T23:49:27.517Z,11.83
2023-05-21T23:54:29.584Z,11.85
2023-05-21T23:59:31.731Z,11.79
